createdAt,value
2022-08-12T00:02:02.589Z,99292.63
2022-08-12T00:04:52.069Z,99283.34
2022-08-12T00:07:38.369Z,99287.50
2022-08-12T00:10:25.076Z,99284.19
2022-08-12T00:13:12.065Z,99291.63
2022-08-12T00:16:00.851Z,99286.81
2022-08-12T00:18:46.921Z,99287.50
2022-08-12T00:21:33.344Z,99290.91
2022-08-12T00:24:22.372Z,99296.38
2022-08-12T00:27:08.414Z,99281.81
2022-08-12T00:29:54.235Z,99285.31
2022-08-12T00:32:40.635Z,99286.44
2022-08-12T00:35:36.571Z,99287.06
2022-08-12T00:38:22.909Z,99282.00
2022-08-12T00:41:08.582Z,99280.41
2022-08-12T00:43:36.479Z,99279.97
2022-08-12T00:46:22.584Z,99286.97
2022-08-12T00:48:50.033Z,99277.75
2022-08-12T00:51:17.330Z,99281.47
2022-08-12T00:53:44.488Z,99283.16
2022-08-12T00:56:11.897Z,99282.16
2022-08-12T00:58:39.312Z,99284.13
2022-08-12T01:01:07.806Z,99270.78
2022-08-12T01:03:54.702Z,99280.50
2022-08-12T01:06:40.901Z,99276.50
2022-08-12T01:09:27.276Z,99281.19
2022-08-12T01:11:54.743Z,99280.12
2022-08-12T01:14:25.630Z,99279.72
2022-08-12T01:16:53.033Z,99279.53
2022-08-12T01:19:22.171Z,99278.00
2022-08-12T01:22:09.346Z,99276.72
2022-08-12T01:24:55.602Z,99280.84
2022-08-12T01:27:23.484Z,99280.41
2022-08-12T01:29:52.241Z,99287.41
2022-08-12T01:32:20.007Z,99283.84
2022-08-12T01:35:17.624Z,99282.63
2022-08-12T01:37:49.305Z,99274.53
2022-08-12T01:40:35.109Z,99278.56
2022-08-12T01:43:08.861Z,99277.37
2022-08-12T01:45:43.403Z,99280.81
2022-08-12T01:48:15.914Z,99277.47
2022-08-12T01:51:00.290Z,99272.06
2022-08-12T01:53:50.745Z,99276.72
2022-08-12T01:56:19.136Z,99260.75
2022-08-12T01:59:05.101Z,99264.69
2022-08-12T02:01:34.525Z,99272.19
2022-08-12T02:04:39.406Z,99260.97
2022-08-12T02:07:41.078Z,99258.16
2022-08-12T02:10:50.290Z,99263.31
2022-08-12T02:13:42.017Z,99259.53
2022-08-12T02:16:11.874Z,99260.38
2022-08-12T02:18:56.529Z,99252.72
2022-08-12T02:21:34.803Z,99253.84
2022-08-12T02:24:02.082Z,99244.41
2022-08-12T02:26:30.833Z,99249.31
2022-08-12T02:28:58.005Z,99246.97
2022-08-12T02:31:25.176Z,99247.34
2022-08-12T02:33:52.623Z,99251.44
2022-08-12T02:36:19.796Z,99244.94
2022-08-12T02:38:48.107Z,99244.38
2022-08-12T02:41:16.983Z,99244.22
2022-08-12T02:43:50.953Z,99241.63
2022-08-12T02:46:19.600Z,99234.19
2022-08-12T02:48:49.042Z,99231.22
2022-08-12T02:51:19.400Z,99230.75
2022-08-12T02:54:03.052Z,99241.72
2022-08-12T02:56:34.030Z,99229.66
2022-08-12T02:59:01.504Z,99230.66
2022-08-12T03:01:32.691Z,99229.38
2022-08-12T03:04:00.397Z,99224.47
2022-08-12T03:06:30.515Z,99223.19
2022-08-12T03:08:58.257Z,99215.09
2022-08-12T03:11:42.962Z,99219.59
2022-08-12T03:14:17.502Z,99222.03
2022-08-12T03:16:47.726Z,99229.72
2022-08-12T03:19:14.878Z,99227.44
2022-08-12T03:21:54.729Z,99225.56
2022-08-12T03:24:29.458Z,99228.22
2022-08-12T03:27:00.279Z,99224.16
2022-08-12T03:29:30.336Z,99221.34
2022-08-12T03:32:00.685Z,99234.41
2022-08-12T03:34:29.886Z,99227.22
2022-08-12T03:36:57.085Z,99230.59
2022-08-12T03:39:39.973Z,99237.56
2022-08-12T03:42:11.574Z,99234.03
2022-08-12T03:44:59.203Z,99225.19
2022-08-12T03:47:56.176Z,99230.09
2022-08-12T03:50:42.351Z,99237.91
2022-08-12T03:53:28.336Z,99233.94
2022-08-12T03:56:14.596Z,99235.03
2022-08-12T03:59:00.531Z,99233.41
2022-08-12T04:01:28.098Z,99231.59
2022-08-12T04:03:55.815Z,99231.69
2022-08-12T04:06:35.572Z,99242.62
2022-08-12T04:09:14.668Z,99238.72
2022-08-12T04:12:01.689Z,99244.09
2022-08-12T04:14:29.109Z,99237.09
2022-08-12T04:16:57.112Z,99244.28
2022-08-12T04:19:25.151Z,99243.62
2022-08-12T04:22:01.066Z,99245.84
2022-08-12T04:24:36.790Z,99254.72
2022-08-12T04:27:10.259Z,99248.78
2022-08-12T04:30:31.589Z,99254.41
2022-08-12T04:32:26.044Z,99258.84
2022-08-12T04:34:53.712Z,99252.31
2022-08-12T04:37:20.930Z,99262.72
2022-08-12T04:39:48.780Z,99255.31
2022-08-12T04:42:16.250Z,99259.78
2022-08-12T04:44:44.438Z,99259.50
2022-08-12T04:47:12.674Z,99267.63
2022-08-12T04:49:40.802Z,99265.31
2022-08-12T04:52:07.967Z,99270.75
2022-08-12T04:54:35.510Z,99274.12
2022-08-12T04:57:03.623Z,99273.00
2022-08-12T04:59:48.332Z,99275.88
2022-08-12T05:02:21.635Z,99276.66
2022-08-12T05:04:51.253Z,99277.56
2022-08-12T05:07:19.199Z,99281.47
2022-08-12T05:09:58.829Z,99283.34
2022-08-12T05:12:30.504Z,99284.28
2022-08-12T05:14:58.874Z,99280.44
2022-08-12T05:17:28.081Z,99282.47
2022-08-12T05:19:57.318Z,99279.25
2022-08-12T05:22:26.110Z,99279.03
2022-08-12T05:24:53.535Z,99285.44
2022-08-12T05:27:22.910Z,99278.03
2022-08-12T05:30:06.534Z,99278.88
2022-08-12T05:32:36.566Z,99282.00
2022-08-12T05:35:06.871Z,99280.84
2022-08-12T05:37:34.934Z,99283.22
2022-08-12T05:40:08.245Z,99290.31
2022-08-12T05:42:37.978Z,99282.41
2022-08-12T05:45:06.166Z,99288.41
2022-08-12T05:47:53.800Z,99286.94
2022-08-12T05:50:22.078Z,99283.50
2022-08-12T05:52:49.278Z,99286.69
2022-08-12T05:55:20.427Z,99281.75
2022-08-12T05:57:52.451Z,99283.28
2022-08-12T06:00:20.551Z,99284.28
2022-08-12T06:02:48.001Z,99288.09
2022-08-12T06:05:15.179Z,99287.28
2022-08-12T06:08:01.932Z,99295.22
2022-08-12T06:10:33.382Z,99284.59
2022-08-12T06:13:01.095Z,99291.78
2022-08-12T06:15:28.410Z,99293.03
2022-08-12T06:18:14.144Z,99288.88
2022-08-12T06:20:43.906Z,99281.34
2022-08-12T06:23:11.874Z,99285.59
2022-08-12T06:25:39.192Z,99284.69
2022-08-12T06:28:14.575Z,99295.97
2022-08-12T06:30:42.398Z,99296.81
2022-08-12T06:33:59.527Z,99288.62
2022-08-12T06:35:59.070Z,99287.28
2022-08-12T06:38:27.146Z,99294.84
2022-08-12T06:41:13.845Z,99293.75
2022-08-12T06:44:07.160Z,99286.13
2022-08-12T06:46:29.210Z,99291.78
2022-08-12T06:48:59.049Z,99292.59
2022-08-12T06:51:27.031Z,99298.06
2022-08-12T06:53:55.930Z,99298.47
2022-08-12T06:56:39.835Z,99285.78
2022-08-12T06:59:11.607Z,99284.69
2022-08-12T07:01:38.994Z,99285.19
2022-08-12T07:04:26.342Z,99287.53
2022-08-12T07:06:55.824Z,99295.00
2022-08-12T07:09:58.121Z,99296.44
2022-08-12T07:12:17.123Z,99293.69
2022-08-12T07:14:48.803Z,99282.78
2022-08-12T07:17:16.389Z,99279.88
2022-08-12T07:19:45.240Z,99290.31
2022-08-12T07:22:14.156Z,99295.56
2022-08-12T07:24:42.313Z,99299.22
2022-08-12T07:27:09.606Z,99295.56
2022-08-12T07:30:04.351Z,99305.41
2022-08-12T07:32:25.512Z,99294.84
2022-08-12T07:34:56.590Z,99301.66
2022-08-12T07:37:24.004Z,99306.81
2022-08-12T07:40:00.619Z,99303.66
2022-08-12T07:42:29.518Z,99302.84
2022-08-12T07:44:56.912Z,99301.19
2022-08-12T07:47:24.475Z,99303.19
2022-08-12T07:50:05.176Z,99302.19
2022-08-12T07:52:38.333Z,99293.34
2022-08-12T07:55:06.127Z,99298.41
2022-08-12T07:57:33.321Z,99300.66
2022-08-12T08:00:05.783Z,99292.56
2022-08-12T08:02:35.834Z,99303.22
2022-08-12T08:05:04.208Z,99297.53
2022-08-12T08:07:31.431Z,99290.91
2022-08-12T08:09:59.893Z,99298.34
2022-08-12T08:12:47.255Z,99296.12
2022-08-12T08:15:15.635Z,99301.78
2022-08-12T08:17:57.959Z,99297.94
2022-08-12T08:20:28.836Z,99292.81
2022-08-12T08:22:56.988Z,99290.38
2022-08-12T08:25:35.961Z,99296.81
2022-08-12T08:28:06.078Z,99299.03
2022-08-12T08:30:33.493Z,99291.87
2022-08-12T08:33:00.702Z,99295.69
2022-08-12T08:35:46.466Z,99291.06
2022-08-12T08:38:24.531Z,99289.16
2022-08-12T08:42:14.109Z,99288.31
2022-08-12T08:44:06.773Z,99280.91
2022-08-12T08:46:37.932Z,99280.28
2022-08-12T08:49:05.634Z,99287.97
2022-08-12T08:51:33.591Z,99285.66
2022-08-12T08:54:00.716Z,99286.63
2022-08-12T08:56:29.708Z,99282.47
2022-08-12T08:58:57.764Z,99284.09
2022-08-12T09:01:37.827Z,99282.88
2022-08-12T09:05:09.308Z,99276.28
2022-08-12T09:06:56.751Z,99269.59
2022-08-12T09:09:28.321Z,99272.47
2022-08-12T09:12:27.277Z,99273.84
2022-08-12T09:14:55.045Z,99269.50
2022-08-12T09:17:22.553Z,99268.22
2022-08-12T09:22:37.705Z,99262.19
2022-08-12T09:25:07.124Z,99263.28
2022-08-12T09:28:15.869Z,99263.84
2022-08-12T09:30:42.262Z,99262.78
2022-08-12T09:33:18.291Z,99261.37
2022-08-12T09:36:05.036Z,99259.91
2022-08-12T09:38:33.720Z,99246.44
2022-08-12T09:42:08.423Z,99256.81
2022-08-12T09:44:38.106Z,99247.09
2022-08-12T09:46:57.475Z,99236.38
2022-08-12T09:49:27.308Z,99237.22
2022-08-12T09:51:55.540Z,99240.06
2022-08-12T09:54:34.887Z,99251.56
2022-08-12T09:58:46.157Z,99244.78
2022-08-12T10:00:15.966Z,99245.00
2022-08-12T10:03:04.903Z,99235.84
2022-08-12T10:06:20.312Z,99245.31
2022-08-12T10:08:24.535Z,99240.59
2022-08-12T10:11:19.985Z,99232.00
2022-08-12T10:13:48.765Z,99229.41
2022-08-12T10:16:22.355Z,99228.69
2022-08-12T10:18:52.178Z,99220.06
2022-08-12T10:21:23.973Z,99226.25
2022-08-12T10:24:04.052Z,99230.19
2022-08-12T10:26:50.587Z,99216.53
2022-08-12T10:30:37.197Z,99215.53
2022-08-12T10:32:44.401Z,99217.00
2022-08-12T10:35:13.492Z,99211.81
2022-08-12T10:38:36.464Z,99210.97
2022-08-12T10:40:33.513Z,99207.00
2022-08-12T10:43:20.187Z,99210.38
2022-08-12T10:45:51.844Z,99206.03
2022-08-12T10:48:27.179Z,99209.66
2022-08-12T10:51:51.673Z,99205.97
2022-08-12T10:54:00.595Z,99197.03
2022-08-12T10:56:34.645Z,99203.47
2022-08-12T10:59:10.560Z,99191.56
2022-08-12T11:04:17.097Z,99195.63
2022-08-12T11:04:44.879Z,99200.34
2022-08-12T11:08:33.731Z,99194.75
2022-08-12T11:10:02.420Z,99190.12
2022-08-12T11:12:56.258Z,99189.47
2022-08-12T11:15:32.914Z,99193.44
2022-08-12T11:18:12.012Z,99197.00
2022-08-12T11:20:45.426Z,99188.22
2022-08-12T11:23:25.250Z,99182.59
2022-08-12T11:26:05.358Z,99182.56
2022-08-12T11:28:36.917Z,99180.06
2022-08-12T11:31:05.085Z,99180.63
2022-08-12T11:34:06.466Z,99183.63
2022-08-12T11:36:21.955Z,99179.47
2022-08-12T11:38:50.836Z,99174.69
2022-08-12T11:41:31.450Z,99172.22
2022-08-12T11:44:33.349Z,99168.38
2022-08-12T11:46:51.329Z,99177.09
2022-08-12T11:49:31.744Z,99175.19
2022-08-12T11:52:03.002Z,99172.34
2022-08-12T11:54:31.023Z,99172.28
2022-08-12T11:57:02.313Z,99176.81
2022-08-12T12:02:20.136Z,99174.16
2022-08-12T12:04:52.469Z,99164.22
2022-08-12T12:08:35.986Z,99165.72
2022-08-12T12:10:14.788Z,99173.97
2022-08-12T12:12:49.418Z,99174.16
2022-08-12T12:15:25.114Z,99164.81
2022-08-12T12:18:05.703Z,99161.00
2022-08-12T12:20:34.315Z,99159.41
2022-08-12T12:23:01.583Z,99166.38
2022-08-12T12:25:59.627Z,99157.97
2022-08-12T12:28:37.312Z,99163.91
2022-08-12T12:31:04.260Z,99160.63
2022-08-12T12:33:57.583Z,99157.22
2022-08-12T12:36:24.135Z,99161.84
2022-08-12T12:39:00.525Z,99152.22
2022-08-12T12:42:41.670Z,99144.00
2022-08-12T12:44:25.806Z,99142.09
2022-08-12T12:47:03.088Z,99140.00
2022-08-12T12:49:32.681Z,99144.50
2022-08-12T12:52:19.430Z,99136.34
2022-08-12T12:54:54.730Z,99138.41
2022-08-12T12:57:36.276Z,99125.88
2022-08-12T13:00:15.083Z,99128.91
2022-08-12T13:02:53.706Z,99130.88
2022-08-12T13:05:27.604Z,99119.56
2022-08-12T13:08:01.002Z,99125.03
2022-08-12T13:10:30.646Z,99124.41
2022-08-12T13:12:59.155Z,99111.53
2022-08-12T13:15:49.610Z,99108.09
2022-08-12T13:18:28.642Z,99100.63
2022-08-12T13:20:59.698Z,99107.38
2022-08-12T13:23:37.196Z,99100.13
2022-08-12T13:26:05.060Z,99110.34
2022-08-12T13:28:32.772Z,99107.22
2022-08-12T13:31:00.078Z,99101.59
2022-08-12T13:33:28.553Z,99112.84
2022-08-12T13:36:05.778Z,99100.13
2022-08-12T13:38:36.100Z,99095.22
2022-08-12T13:41:03.780Z,99101.97
2022-08-12T13:43:41.266Z,99102.06
2022-08-12T13:46:11.894Z,99094.72
2022-08-12T13:48:45.282Z,99089.69
2022-08-12T13:51:14.073Z,99096.88
2022-08-12T13:53:59.041Z,99091.00
2022-08-12T13:56:34.473Z,99095.06
2022-08-12T13:59:03.404Z,99083.03
2022-08-12T14:01:33.364Z,99091.12
2022-08-12T14:04:04.462Z,99087.97
2022-08-12T14:06:32.134Z,99091.72
2022-08-12T14:09:00.639Z,99080.50
2022-08-12T14:11:48.303Z,99087.91
2022-08-12T14:14:27.685Z,99081.22
2022-08-12T14:17:05.471Z,99080.09
2022-08-12T14:19:37.997Z,99079.88
2022-08-12T14:22:13.843Z,99070.41
2022-08-12T14:24:42.726Z,99070.47
2022-08-12T14:27:11.025Z,99064.59
2022-08-12T14:30:05.164Z,99065.63
2022-08-12T14:32:35.230Z,99069.38
2022-08-12T14:35:05.189Z,99060.69
2022-08-12T14:37:56.044Z,99061.72
2022-08-12T14:40:27.391Z,99054.88
2022-08-12T14:42:56.982Z,99054.94
2022-08-12T14:45:37.139Z,99046.81
2022-08-12T14:48:12.408Z,99047.13
2022-08-12T14:51:02.603Z,99038.66
2022-08-12T14:59:24.178Z,99039.31
2022-08-12T15:01:54.546Z,99037.78
2022-08-12T15:04:26.185Z,99033.75
2022-08-12T15:06:55.123Z,99027.44
2022-08-12T15:09:28.700Z,99019.44
2022-08-12T15:12:03.416Z,99019.06
2022-08-12T15:14:31.810Z,99011.34
2022-08-12T15:17:00.534Z,99016.81
2022-08-12T15:20:11.702Z,99016.44
2022-08-12T15:22:36.935Z,99013.56
2022-08-12T15:25:07.644Z,99017.37
2022-08-12T15:28:04.523Z,99008.59
2022-08-12T15:30:30.842Z,99007.59
2022-08-12T15:32:58.981Z,99008.53
2022-08-12T15:35:31.415Z,99009.87
2022-08-12T15:38:19.432Z,99000.63
2022-08-12T15:40:50.568Z,98997.66
2022-08-12T15:43:27.452Z,98993.66
2022-08-12T15:46:06.407Z,98995.66
2022-08-12T15:48:34.209Z,99002.47
2022-08-12T15:51:03.019Z,99000.06
2022-08-12T15:53:53.282Z,98986.53
2022-08-12T15:56:29.497Z,98985.19
2022-08-12T15:58:59.238Z,98997.41
2022-08-12T16:01:35.047Z,98992.03
2022-08-12T16:04:05.413Z,98993.25
2022-08-12T16:09:31.803Z,98985.53
2022-08-12T16:12:12.058Z,98976.94
2022-08-12T16:14:39.818Z,98982.81
2022-08-12T16:17:08.965Z,98980.13
2022-08-12T16:20:04.308Z,98976.47
2022-08-12T16:22:26.585Z,98976.56
2022-08-12T16:24:54.148Z,98972.37
2022-08-12T16:27:25.633Z,98976.00
2022-08-12T16:29:57.684Z,98985.13
2022-08-12T16:32:31.929Z,98982.66
2022-08-12T16:35:02.172Z,98986.87
2022-08-12T16:38:25.240Z,98978.69
2022-08-12T16:40:21.801Z,98980.56
2022-08-12T16:42:54.094Z,98977.72
2022-08-12T16:46:04.434Z,98992.97
2022-08-12T16:48:23.982Z,98988.22
2022-08-12T16:51:02.535Z,98983.41
2022-08-12T16:53:30.861Z,98979.25
2022-08-12T16:56:12.395Z,98969.41
2022-08-12T16:58:40.713Z,98967.53
2022-08-12T17:01:12.004Z,98970.16
2022-08-12T17:03:50.282Z,98969.12
2022-08-12T17:06:22.550Z,98972.44
2022-08-12T17:09:02.926Z,98971.72
2022-08-12T17:11:30.882Z,98970.53
2022-08-12T17:13:59.537Z,98965.91
2022-08-12T17:16:30.214Z,98976.38
2022-08-12T17:18:59.686Z,98966.69
2022-08-12T17:21:41.006Z,98967.91
2022-08-12T17:24:21.434Z,98973.59
2022-08-12T17:26:54.103Z,98968.69
2022-08-12T17:29:24.330Z,98973.81
2022-08-12T17:32:11.002Z,98975.66
2022-08-12T17:34:57.383Z,98977.97
2022-08-12T17:37:24.561Z,98973.97
2022-08-12T17:40:15.931Z,98975.50
2022-08-12T17:42:47.767Z,98978.69
2022-08-12T17:45:19.590Z,98968.50
2022-08-12T17:48:02.212Z,98979.41
2022-08-12T17:50:33.708Z,98981.22
2022-08-12T17:53:03.034Z,98977.00
2022-08-12T17:55:43.619Z,98982.88
2022-08-12T17:58:37.136Z,98980.25
2022-08-12T18:01:06.154Z,98981.94
2022-08-12T18:04:04.362Z,98977.47
2022-08-12T18:06:28.191Z,98972.63
2022-08-12T18:08:58.679Z,98974.34
2022-08-12T18:12:04.261Z,98982.50
2022-08-12T18:14:32.773Z,98984.16
2022-08-12T18:17:08.113Z,98983.41
2022-08-12T18:20:06.994Z,98982.22
2022-08-12T18:22:30.863Z,98984.44
2022-08-12T18:25:04.905Z,98987.84
2022-08-12T18:27:43.595Z,98987.97
2022-08-12T18:30:16.240Z,98985.34
2022-08-12T18:32:58.854Z,98992.63
2022-08-12T18:35:47.669Z,98994.53
2022-08-12T18:38:19.476Z,98995.81
2022-08-12T18:41:06.023Z,98988.44
2022-08-12T18:43:38.895Z,98985.44
2022-08-12T18:46:22.926Z,98994.00
2022-08-12T18:48:56.554Z,98991.19
2022-08-12T18:51:45.957Z,98991.31
2022-08-12T18:54:11.323Z,98989.53
2022-08-12T18:56:38.958Z,98992.53
2022-08-12T18:59:06.478Z,98995.13
2022-08-12T19:02:20.745Z,98995.75
2022-08-12T19:04:29.249Z,98999.53
2022-08-12T19:06:57.642Z,98993.47
2022-08-12T19:09:57.992Z,98995.13
2022-08-12T19:12:41.486Z,98997.84
2022-08-12T19:15:09.381Z,99000.81
2022-08-12T19:17:47.730Z,99000.50
2022-08-12T19:20:24.531Z,99003.56
2022-08-12T19:22:57.908Z,99003.13
2022-08-12T19:26:00.017Z,98999.59
2022-08-12T19:28:29.535Z,99000.91
2022-08-12T19:31:55.516Z,98998.38
2022-08-12T19:34:55.875Z,98998.12
2022-08-12T19:37:09.668Z,98996.16
2022-08-12T19:40:08.220Z,98999.69
2022-08-12T19:42:27.780Z,99004.34
2022-08-12T19:45:01.358Z,98997.53
2022-08-12T19:47:38.825Z,99002.75
2022-08-12T19:50:06.901Z,99004.22
2022-08-12T19:52:40.770Z,99001.16
2022-08-12T19:55:11.471Z,98998.84
2022-08-12T19:58:02.258Z,98987.75
2022-08-12T20:00:32.162Z,98992.38
2022-08-12T20:03:04.376Z,98993.72
2022-08-12T20:06:07.101Z,98990.06
2022-08-12T20:08:32.904Z,98986.87
2022-08-12T20:12:09.714Z,98986.28
2022-08-12T20:13:57.997Z,98989.09
2022-08-12T20:16:51.972Z,98990.44
2022-08-12T20:19:23.396Z,98981.22
2022-08-12T20:21:50.792Z,98982.25
2022-08-12T20:24:19.130Z,98986.94
2022-08-12T20:26:48.125Z,98985.16
2022-08-12T20:29:16.577Z,98984.41
2022-08-12T20:31:45.558Z,98982.19
2022-08-12T20:34:13.051Z,98986.53
2022-08-12T20:36:44.695Z,98986.66
2022-08-12T20:39:34.115Z,98987.22
2022-08-12T20:42:04.087Z,98976.19
2022-08-12T20:44:40.179Z,98974.75
2022-08-12T20:47:18.484Z,98985.88
2022-08-12T20:49:55.480Z,98975.81
2022-08-12T20:52:30.071Z,98979.16
2022-08-12T20:54:58.142Z,98986.41
2022-08-12T20:57:37.551Z,98986.91
2022-08-12T21:00:16.132Z,98981.75
2022-08-12T21:02:50.143Z,98974.41
2022-08-12T21:06:12.706Z,98975.62
2022-08-12T21:08:27.287Z,98976.38
2022-08-12T21:10:58.853Z,98971.97
2022-08-12T21:13:29.541Z,98984.72
2022-08-12T21:16:10.136Z,98977.13
2022-08-12T21:18:38.017Z,98980.37
2022-08-12T21:21:05.590Z,98982.91
2022-08-12T21:23:37.136Z,98974.69
2022-08-12T21:26:16.252Z,98975.53
2022-08-12T21:28:58.535Z,98971.63
2022-08-12T21:32:36.603Z,98971.97
2022-08-12T21:34:21.407Z,98972.47
2022-08-12T21:36:53.417Z,98983.34
2022-08-12T21:39:27.895Z,98981.50
2022-08-12T21:42:06.645Z,98986.44
2022-08-12T21:45:47.857Z,98991.38
2022-08-12T21:47:23.044Z,98993.50
2022-08-12T21:50:02.459Z,98992.28
2022-08-12T21:52:40.562Z,99001.66
2022-08-12T21:55:18.682Z,99012.34
2022-08-12T21:57:48.236Z,99005.31
2022-08-12T22:00:20.580Z,99003.34
2022-08-12T22:03:07.830Z,98998.84
2022-08-12T22:05:54.084Z,99005.78
2022-08-12T22:08:26.150Z,99000.06
2022-08-12T22:10:56.361Z,99001.41
2022-08-12T22:14:07.804Z,98996.56
2022-08-12T22:16:13.051Z,99004.03
2022-08-12T22:18:40.959Z,98993.72
2022-08-12T22:21:12.671Z,98993.09
2022-08-12T22:24:04.267Z,98990.66
2022-08-12T22:26:37.335Z,98998.34
2022-08-12T22:29:27.522Z,98987.16
2022-08-12T22:31:55.583Z,98988.53
2022-08-12T22:34:29.440Z,98984.25
2022-08-12T22:36:57.424Z,98984.88
2022-08-12T22:39:26.432Z,98994.75
2022-08-12T22:42:13.119Z,98986.87
2022-08-12T22:45:06.152Z,98989.16
2022-08-12T22:47:55.303Z,98984.38
2022-08-12T22:50:27.221Z,98985.25
2022-08-12T22:53:17.007Z,98991.56
2022-08-12T22:56:00.286Z,98984.22
2022-08-12T22:58:33.953Z,98991.12
2022-08-12T23:01:01.911Z,98990.53
2022-08-12T23:03:48.558Z,98988.16
2022-08-12T23:06:24.229Z,98986.38
2022-08-12T23:08:52.089Z,98982.16
2022-08-12T23:11:23.732Z,98983.38
2022-08-12T23:13:56.832Z,98983.62
2022-08-12T23:16:33.077Z,98983.62
2022-08-12T23:19:11.071Z,98974.09
2022-08-12T23:22:05.205Z,98966.63
2022-08-12T23:24:39.199Z,98967.47
2022-08-12T23:27:50.792Z,98968.69
2022-08-12T23:30:18.469Z,98964.03
2022-08-12T23:32:54.063Z,98953.03
2022-08-12T23:35:22.622Z,98956.94
2022-08-12T23:37:53.726Z,98955.38
2022-08-12T23:40:24.231Z,98945.34
2022-08-12T23:42:54.225Z,98943.59
2022-08-12T23:45:30.713Z,98946.22
2022-08-12T23:47:59.858Z,98940.66
2022-08-12T23:50:34.153Z,98937.44
2022-08-12T23:53:05.339Z,98938.06
2022-08-12T23:55:40.455Z,98934.75
2022-08-12T23:58:20.749Z,98939.81
